sensor_id;sensor_type;location;lat;lon;timestamp;pressure;altitude;pressure_sealevel;temperature;humidity
55550;BME280;41397;49.972;18.944;2022-12-20T00:02:37;102960.40;;;1.35;78.11
55550;BME280;41397;49.972;18.944;2022-12-20T00:05:39;102964.02;;;1.32;78.43
55550;BME280;41397;49.972;18.944;2022-12-20T00:08:42;102961.29;;;1.36;78.61
55550;BME280;41397;49.972;18.944;2022-12-20T00:11:43;102964.91;;;1.33;78.84
55550;BME280;41397;49.972;18.944;2022-12-20T00:14:44;102964.89;;;1.39;78.87
55550;BME280;41397;49.972;18.944;2022-12-20T00:17:45;102966.64;;;1.45;79.07
55550;BME280;41397;49.972;18.944;2022-12-20T00:20:47;102956.73;;;1.45;78.95
55550;BME280;41397;49.972;18.944;2022-12-20T00:23:48;102945.98;;;1.42;79.02
55550;BME280;41397;49.972;18.944;2022-12-20T00:26:49;102950.39;;;1.51;78.98
55550;BME280;41397;49.972;18.944;2022-12-20T00:29:50;102939.60;;;1.51;79.17
55550;BME280;41397;49.972;18.944;2022-12-20T00:32:52;102942.26;;;1.55;79.24
55550;BME280;41397;49.972;18.944;2022-12-20T00:35:55;102949.39;;;1.58;79.03
55550;BME280;41397;49.972;18.944;2022-12-20T00:38:58;102954.82;;;1.57;79.49
55550;BME280;41397;49.972;18.944;2022-12-20T00:42:00;102947.66;;;1.54;79.35
55550;BME280;41397;49.972;18.944;2022-12-20T00:45:02;102953.02;;;1.57;79.92
55550;BME280;41397;49.972;18.944;2022-12-20T00:48:04;102944.96;;;1.54;80.00
55550;BME280;41397;49.972;18.944;2022-12-20T00:54:17;102952.06;;;1.63;80.13
55550;BME280;41397;49.972;18.944;2022-12-20T00:57:18;102930.41;;;1.69;80.16
55550;BME280;41397;49.972;18.944;2022-12-20T01:00:20;102925.09;;;1.64;80.41
55550;BME280;41397;49.972;18.944;2022-12-20T01:03:21;102907.98;;;1.65;80.78
55550;BME280;41397;49.972;18.944;2022-12-20T01:06:24;102909.75;;;1.66;80.52
55550;BME280;41397;49.972;18.944;2022-12-20T01:09:25;102879.16;;;1.72;80.54
55550;BME280;41397;49.972;18.944;2022-12-20T01:12:26;102869.21;;;1.74;80.32
55550;BME280;41397;49.972;18.944;2022-12-20T01:15:28;102879.97;;;1.77;80.25
55550;BME280;41397;49.972;18.944;2022-12-20T01:18:29;102900.66;;;1.76;80.40
55550;BME280;41397;49.972;18.944;2022-12-20T01:21:30;102907.02;;;1.72;80.35
55550;BME280;41397;49.972;18.944;2022-12-20T01:24:32;102901.63;;;1.72;80.01
55550;BME280;41397;49.972;18.944;2022-12-20T01:27:33;102918.73;;;1.70;79.79
55550;BME280;41397;49.972;18.944;2022-12-20T01:30:34;102931.38;;;1.63;79.40
55550;BME280;41397;49.972;18.944;2022-12-20T01:33:39;102942.23;;;1.59;79.52
55550;BME280;41397;49.972;18.944;2022-12-20T01:36:40;102934.03;;;1.66;79.69
55550;BME280;41397;49.972;18.944;2022-12-20T01:39:42;102920.47;;;1.74;79.76
55550;BME280;41397;49.972;18.944;2022-12-20T01:42:43;102899.85;;;1.68;79.76
55550;BME280;41397;49.972;18.944;2022-12-20T01:45:44;102888.21;;;1.65;79.75
55550;BME280;41397;49.972;18.944;2022-12-20T01:48:54;102904.28;;;1.74;79.70
55550;BME280;41397;49.972;18.944;2022-12-20T01:52:06;102912.34;;;1.78;79.77
55550;BME280;41397;49.972;18.944;2022-12-20T01:55:15;102888.10;;;1.74;79.99
55550;BME280;41397;49.972;18.944;2022-12-20T01:58:19;102874.61;;;1.74;79.86
55550;BME280;41397;49.972;18.944;2022-12-20T02:01:22;102889.95;;;1.70;79.59
55550;BME280;41397;49.972;18.944;2022-12-20T02:04:24;102883.70;;;1.67;79.70
55550;BME280;41397;49.972;18.944;2022-12-20T02:07:28;102879.23;;;1.63;79.43
55550;BME280;41397;49.972;18.944;2022-12-20T02:33:10;102843.41;;;1.51;81.04
55550;BME280;41397;49.972;18.944;2022-12-20T02:36:16;102847.77;;;1.63;80.92
55550;BME280;41397;49.972;18.944;2022-12-20T02:39:18;102854.04;;;1.67;80.45
55550;BME280;41397;49.972;18.944;2022-12-20T02:42:23;102865.71;;;1.67;80.26
55550;BME280;41397;49.972;18.944;2022-12-20T02:45:28;102874.68;;;1.68;80.12
55550;BME280;41397;49.972;18.944;2022-12-20T02:48:36;102869.30;;;1.66;80.16
55550;BME280;41397;49.972;18.944;2022-12-20T02:51:40;102874.68;;;1.66;80.35
55550;BME280;41397;49.972;18.944;2022-12-20T02:54:43;102861.20;;;1.68;80.58
55550;BME280;41397;49.972;18.944;2022-12-20T02:57:53;102851.43;;;1.58;80.62
55550;BME280;41397;49.972;18.944;2022-12-20T03:00:58;102854.06;;;1.64;80.90
55550;BME280;41397;49.972;18.944;2022-12-20T03:04:05;102854.95;;;1.64;80.92
55550;BME280;41397;49.972;18.944;2022-12-20T03:07:12;102859.51;;;1.58;81.50
55550;BME280;41397;49.972;18.944;2022-12-20T03:10:15;102854.97;;;1.63;81.39
55550;BME280;41397;49.972;18.944;2022-12-20T03:13:17;102861.28;;;1.62;81.49
55550;BME280;41397;49.972;18.944;2022-12-20T03:16:19;102850.50;;;1.62;81.55
55550;BME280;41397;49.972;18.944;2022-12-20T03:19:20;102859.42;;;1.67;81.40
55550;BME280;41397;49.972;18.944;2022-12-20T03:22:21;102853.26;;;1.55;81.77
55550;BME280;41397;49.972;18.944;2022-12-20T03:25:23;102851.45;;;1.54;81.82
55550;BME280;41397;49.972;18.944;2022-12-20T03:28:25;102840.60;;;1.61;81.92
55550;BME280;41397;49.972;18.944;2022-12-20T03:31:26;102827.95;;;1.66;81.64
55550;BME280;41397;49.972;18.944;2022-12-20T03:34:27;102828.00;;;1.63;81.34
55550;BME280;41397;49.972;18.944;2022-12-20T03:37:29;102830.73;;;1.60;81.17
55550;BME280;41397;49.972;18.944;2022-12-20T03:40:31;102837.94;;;1.59;81.39
55550;BME280;41397;49.972;18.944;2022-12-20T03:43:32;102833.38;;;1.63;81.25
55550;BME280;41397;49.972;18.944;2022-12-20T03:46:34;102829.81;;;1.62;81.11
55550;BME280;41397;49.972;18.944;2022-12-20T03:49:35;102826.19;;;1.65;80.91
55550;BME280;41397;49.972;18.944;2022-12-20T03:52:37;102826.19;;;1.65;80.77
55550;BME280;41397;49.972;18.944;2022-12-20T03:55:38;102824.33;;;1.68;80.69
55550;BME280;41397;49.972;18.944;2022-12-20T03:58:39;102814.43;;;1.69;80.83
55550;BME280;41397;49.972;18.944;2022-12-20T04:01:40;102807.30;;;1.65;80.86
55550;BME280;41397;49.972;18.944;2022-12-20T04:04:42;102828.00;;;1.63;80.55
55550;BME280;41397;49.972;18.944;2022-12-20T04:07:43;102835.24;;;1.58;80.34
55550;BME280;41397;49.972;18.944;2022-12-20T04:10:45;102846.98;;;1.53;80.38
55550;BME280;41397;49.972;18.944;2022-12-20T04:13:58;102842.52;;;1.51;80.70
55550;BME280;41397;49.972;18.944;2022-12-20T04:16:59;102839.75;;;1.59;80.50
55550;BME280;41397;49.972;18.944;2022-12-20T04:20:01;102828.88;;;1.63;80.23
55550;BME280;41397;49.972;18.944;2022-12-20T04:23:12;102816.32;;;1.61;80.52
55550;BME280;41397;49.972;18.944;2022-12-20T04:26:13;102818.30;;;1.46;80.36
55550;BME280;41397;49.972;18.944;2022-12-20T04:29:14;102831.73;;;1.51;80.40
55550;BME280;41397;49.972;18.944;2022-12-20T04:32:15;102848.84;;;1.47;80.11
55550;BME280;41397;49.972;18.944;2022-12-20T04:35:17;102847.07;;;1.44;80.52
55550;BME280;41397;49.972;18.944;2022-12-20T04:38:19;102856.09;;;1.45;80.77
55550;BME280;41397;49.972;18.944;2022-12-20T04:41:20;102837.20;;;1.42;80.51
55550;BME280;41397;49.972;18.944;2022-12-20T04:44:22;102838.99;;;1.44;80.57
55550;BME280;41397;49.972;18.944;2022-12-20T04:47:23;102840.82;;;1.41;80.70
55550;BME280;41397;49.972;18.944;2022-12-20T04:50:24;102835.44;;;1.42;80.92
55550;BME280;41397;49.972;18.944;2022-12-20T04:53:26;102832.74;;;1.41;81.00
55550;BME280;41397;49.972;18.944;2022-12-20T04:56:48;102837.32;;;1.32;81.32
55550;BME280;41397;49.972;18.944;2022-12-20T05:00:10;102833.70;;;1.37;81.54
55550;BME280;41397;49.972;18.944;2022-12-20T05:03:12;102839.94;;;1.40;81.53
55550;BME280;41397;49.972;18.944;2022-12-20T05:06:13;102834.59;;;1.36;81.54
55550;BME280;41397;49.972;18.944;2022-12-20T05:09:15;102824.80;;;1.27;81.63
55550;BME280;41397;49.972;18.944;2022-12-20T05:12:16;102828.38;;;1.29;82.01
55550;BME280;41397;49.972;18.944;2022-12-20T05:15:17;102826.58;;;1.29;81.86
55550;BME280;41397;49.972;18.944;2022-12-20T05:18:19;102825.61;;;1.35;81.84
55550;BME280;41397;49.972;18.944;2022-12-20T05:21:20;102827.43;;;1.35;81.74
55550;BME280;41397;49.972;18.944;2022-12-20T05:24:33;102825.63;;;1.33;81.92
55550;BME280;41397;49.972;18.944;2022-12-20T05:27:46;102827.43;;;1.35;81.95
55550;BME280;41397;49.972;18.944;2022-12-20T05:30:48;102828.27;;;1.38;81.76
55550;BME280;41397;49.972;18.944;2022-12-20T05:33:49;102825.55;;;1.41;81.78
55550;BME280;41397;49.972;18.944;2022-12-20T05:36:50;102825.61;;;1.37;81.74
55550;BME280;41397;49.972;18.944;2022-12-20T05:39:52;102827.38;;;1.38;81.67
55550;BME280;41397;49.972;18.944;2022-12-20T05:42:53;102822.00;;;1.38;81.77
55550;BME280;41397;49.972;18.944;2022-12-20T05:45:55;102818.42;;;1.37;81.63
55550;BME280;41397;49.972;18.944;2022-12-20T05:49:02;102817.56;;;1.30;81.88
55550;BME280;41397;49.972;18.944;2022-12-20T05:52:03;102813.99;;;1.31;81.77
55550;BME280;41397;49.972;18.944;2022-12-20T05:55:05;102820.34;;;1.26;81.72
55550;BME280;41397;49.972;18.944;2022-12-20T05:58:09;102812.28;;;1.21;81.76
55550;BME280;41397;49.972;18.944;2022-12-20T06:01:13;102813.21;;;1.20;81.98
55550;BME280;41397;49.972;18.944;2022-12-20T06:04:14;102807.70;;;1.28;81.70
55550;BME280;41397;49.972;18.944;2022-12-20T06:07:16;102790.61;;;1.32;81.79
55550;BME280;41397;49.972;18.944;2022-12-20T06:10:19;102781.55;;;1.36;81.48
55550;BME280;41397;49.972;18.944;2022-12-20T06:13:20;102795.96;;;1.35;81.14
55550;BME280;41397;49.972;18.944;2022-12-20T06:16:21;102769.97;;;1.29;81.29
55550;BME280;41397;49.972;18.944;2022-12-20T06:19:23;102765.47;;;1.30;81.23
55550;BME280;41397;49.972;18.944;2022-12-20T06:22:24;102769.08;;;1.29;81.25
55550;BME280;41397;49.972;18.944;2022-12-20T06:25:27;102778.98;;;1.25;81.33
55550;BME280;41397;49.972;18.944;2022-12-20T06:28:28;102793.53;;;1.12;81.40
55550;BME280;41397;49.972;18.944;2022-12-20T06:31:30;102782.72;;;1.15;81.44
55550;BME280;41397;49.972;18.944;2022-12-20T06:34:31;102790.80;;;1.15;81.53
55550;BME280;41397;49.972;18.944;2022-12-20T06:37:33;102789.91;;;1.11;81.58
55550;BME280;41397;49.972;18.944;2022-12-20T06:40:34;102786.44;;;1.02;81.85
55550;BME280;41397;49.972;18.944;2022-12-20T06:43:35;102788.15;;;1.10;81.79
55550;BME280;41397;49.972;18.944;2022-12-20T06:46:36;102778.39;;;0.99;81.93
55550;BME280;41397;49.972;18.944;2022-12-20T06:49:38;102782.86;;;1.00;81.96
55550;BME280;41397;49.972;18.944;2022-12-20T06:52:41;102791.86;;;0.99;82.25
55550;BME280;41397;49.972;18.944;2022-12-20T06:55:42;102793.57;;;1.06;82.02
55550;BME280;41397;49.972;18.944;2022-12-20T06:58:44;102806.12;;;1.08;82.13
55550;BME280;41397;49.972;18.944;2022-12-20T07:01:49;102817.84;;;1.04;82.16
55550;BME280;41397;49.972;18.944;2022-12-20T07:04:50;102812.46;;;1.03;82.43
55550;BME280;41397;49.972;18.944;2022-12-20T07:07:51;102797.22;;;1.00;82.90
55550;BME280;41397;49.972;18.944;2022-12-20T07:10:53;102797.18;;;1.06;82.89
55550;BME280;41397;49.972;18.944;2022-12-20T07:13:57;102790.87;;;1.07;82.71
55550;BME280;41397;49.972;18.944;2022-12-20T07:16:58;102814.27;;;1.04;82.89
55550;BME280;41397;49.972;18.944;2022-12-20T07:20:00;102806.25;;;0.96;83.37
55550;BME280;41397;49.972;18.944;2022-12-20T07:23:01;102804.23;;;1.18;83.11
55550;BME280;41397;49.972;18.944;2022-12-20T07:26:02;102803.34;;;1.18;83.11
55550;BME280;41397;49.972;18.944;2022-12-20T07:29:05;102798.77;;;1.26;83.31
55550;BME280;41397;49.972;18.944;2022-12-20T07:32:07;102779.71;;;1.41;82.92
55550;BME280;41397;49.972;18.944;2022-12-20T07:35:10;102782.36;;;1.44;83.04
55550;BME280;41397;49.972;18.944;2022-12-20T07:38:12;102783.16;;;1.55;82.37
55550;BME280;41397;49.972;18.944;2022-12-20T07:41:15;102786.70;;;1.58;82.36
55550;BME280;41397;49.972;18.944;2022-12-20T07:44:18;102783.95;;;1.61;81.96
55550;BME280;41397;49.972;18.944;2022-12-20T07:47:20;102783.12;;;1.57;82.30
55550;BME280;41397;49.972;18.944;2022-12-20T07:50:21;102793.91;;;1.57;81.80
55550;BME280;41397;49.972;18.944;2022-12-20T07:53:24;102804.55;;;1.69;81.96
55550;BME280;41397;49.972;18.944;2022-12-20T07:56:28;102793.59;;;1.82;82.13
55550;BME280;41397;49.972;18.944;2022-12-20T07:59:39;102798.06;;;1.86;81.75
55550;BME280;41397;49.972;18.944;2022-12-20T08:02:51;102790.02;;;1.80;81.97
55550;BME280;41397;49.972;18.944;2022-12-20T08:05:54;102804.34;;;1.85;81.57
55550;BME280;41397;49.972;18.944;2022-12-20T08:09:02;102802.52;;;1.87;81.89
55550;BME280;41397;49.972;18.944;2022-12-20T08:12:10;102788.00;;;1.95;81.74
55550;BME280;41397;49.972;18.944;2022-12-20T08:15:14;102780.73;;;2.02;81.60
55550;BME280;41397;49.972;18.944;2022-12-20T08:18:15;102786.93;;;2.09;81.17
55550;BME280;41397;49.972;18.944;2022-12-20T08:21:16;102792.26;;;2.13;80.89
55550;BME280;41397;49.972;18.944;2022-12-20T08:24:18;102785.84;;;2.20;81.06
55550;BME280;41397;49.972;18.944;2022-12-20T08:27:20;102771.35;;;2.26;80.82
55550;BME280;41397;49.972;18.944;2022-12-20T08:30:22;102782.08;;;2.32;80.82
55550;BME280;41397;49.972;18.944;2022-12-20T08:33:23;102785.34;;;2.53;80.58
55550;BME280;41397;49.972;18.944;2022-12-20T08:36:25;102787.16;;;2.52;80.07
55550;BME280;41397;49.972;18.944;2022-12-20T08:39:26;102787.88;;;2.63;80.01
55550;BME280;41397;49.972;18.944;2022-12-20T08:42:29;102788.69;;;2.70;79.82
55550;BME280;41397;49.972;18.944;2022-12-20T08:45:30;102777.65;;;2.81;79.93
55550;BME280;41397;49.972;18.944;2022-12-20T08:48:33;102780.21;;;2.90;79.81
55550;BME280;41397;49.972;18.944;2022-12-20T08:51:34;102783.73;;;2.95;79.15
55550;BME280;41397;49.972;18.944;2022-12-20T08:54:36;102772.87;;;2.97;78.70
55550;BME280;41397;49.972;18.944;2022-12-20T08:57:37;102784.62;;;2.96;78.58
55550;BME280;41397;49.972;18.944;2022-12-20T09:00:41;102778.82;;;3.16;78.93
55550;BME280;41397;49.972;18.944;2022-12-20T09:03:43;102771.46;;;3.24;78.46
55550;BME280;41397;49.972;18.944;2022-12-20T09:06:45;102776.98;;;3.19;78.28
55550;BME280;41397;49.972;18.944;2022-12-20T09:09:47;102791.34;;;3.21;78.09
55550;BME280;41397;49.972;18.944;2022-12-20T09:12:49;102793.13;;;3.22;77.94
55550;BME280;41397;49.972;18.944;2022-12-20T09:15:50;102773.40;;;3.17;77.47
55550;BME280;41397;49.972;18.944;2022-12-20T09:18:53;102781.52;;;3.17;77.41
55550;BME280;41397;49.972;18.944;2022-12-20T09:21:55;102788.54;;;3.27;77.80
55550;BME280;41397;49.972;18.944;2022-12-20T09:24:58;102779.51;;;3.27;77.64
55550;BME280;41397;49.972;18.944;2022-12-20T09:27:59;102776.00;;;3.22;77.34
55550;BME280;41397;49.972;18.944;2022-12-20T09:31:03;102765.88;;;3.33;77.35
55550;BME280;41397;49.972;18.944;2022-12-20T09:34:04;102765.88;;;3.33;77.36
55550;BME280;41397;49.972;18.944;2022-12-20T09:37:06;102778.60;;;3.28;76.86
55550;BME280;41397;49.972;18.944;2022-12-20T09:40:15;102778.34;;;3.40;77.01
55550;BME280;41397;49.972;18.944;2022-12-20T09:43:18;102770.97;;;3.48;76.81
55550;BME280;41397;49.972;18.944;2022-12-20T09:46:22;102752.89;;;3.50;76.61
55550;BME280;41397;49.972;18.944;2022-12-20T09:49:27;102729.30;;;3.57;76.87
55550;BME280;41397;49.972;18.944;2022-12-20T09:59:12;102711.28;;;3.58;76.52
55550;BME280;41397;49.972;18.944;2022-12-20T10:02:19;102696.00;;;3.55;76.46
55550;BME280;41397;49.972;18.944;2022-12-20T10:11:56;102704.92;;;3.60;76.87
55550;BME280;41397;49.972;18.944;2022-12-20T10:15:08;102703.02;;;3.64;76.47
55550;BME280;41397;49.972;18.944;2022-12-20T10:18:20;102708.19;;;3.74;76.60
55550;BME280;41397;49.972;18.944;2022-12-20T10:24:40;102699.23;;;3.71;75.96
55550;BME280;41397;49.972;18.944;2022-12-20T10:27:55;102684.89;;;3.67;76.21
55550;BME280;41397;49.972;18.944;2022-12-20T10:31:03;102674.45;;;3.89;76.26
55550;BME280;41397;49.972;18.944;2022-12-20T10:34:05;102685.46;;;3.82;75.68
55550;BME280;41397;49.972;18.944;2022-12-20T10:37:12;102683.07;;;3.68;75.95
55550;BME280;41397;49.972;18.944;2022-12-20T10:40:26;102699.23;;;3.71;75.50
55550;BME280;41397;49.972;18.944;2022-12-20T10:53:21;102682.75;;;3.82;75.47
55550;BME280;41397;49.972;18.944;2022-12-20T10:56:33;102669.02;;;3.91;75.02
55550;BME280;41397;49.972;18.944;2022-12-20T10:59:37;102650.07;;;3.91;75.29
55550;BME280;41397;49.972;18.944;2022-12-20T11:02:40;102629.84;;;4.06;75.73
55550;BME280;41397;49.972;18.944;2022-12-20T11:08:53;102610.42;;;4.24;74.84
55550;BME280;41397;49.972;18.944;2022-12-20T11:15:22;102620.73;;;4.10;74.40
55550;BME280;41397;49.972;18.944;2022-12-20T11:21:47;102631.30;;;3.83;74.43
55550;BME280;41397;49.972;18.944;2022-12-20T11:41:17;102607.64;;;3.91;74.40
55550;BME280;41397;49.972;18.944;2022-12-20T11:44:32;102597.51;;;3.99;74.48
55550;BME280;41397;49.972;18.944;2022-12-20T11:54:04;102585.63;;;4.05;74.38
55550;BME280;41397;49.972;18.944;2022-12-20T11:57:16;102579.14;;;4.12;74.72
55550;BME280;41397;49.972;18.944;2022-12-20T12:00:20;102563.80;;;4.11;74.69
55550;BME280;41397;49.972;18.944;2022-12-20T12:06:45;102579.75;;;4.23;74.62
55550;BME280;41397;49.972;18.944;2022-12-20T12:19:29;102564.41;;;4.22;73.95
55550;BME280;41397;49.972;18.944;2022-12-20T12:22:33;102578.91;;;4.20;73.53
55550;BME280;41397;49.972;18.944;2022-12-20T12:25:36;102568.03;;;4.23;73.90
55550;BME280;41397;49.972;18.944;2022-12-20T12:28:37;102563.30;;;4.31;73.44
55550;BME280;41397;49.972;18.944;2022-12-20T12:31:49;102560.61;;;4.30;73.74
55550;BME280;41397;49.972;18.944;2022-12-20T12:44:44;102543.95;;;4.12;74.68
55550;BME280;41397;49.972;18.944;2022-12-20T12:47:59;102543.95;;;4.12;74.10
55550;BME280;41397;49.972;18.944;2022-12-20T12:50:57;102543.29;;;4.03;74.26
55550;BME280;41397;49.972;18.944;2022-12-20T12:57:17;102538.35;;;4.18;74.58
55550;BME280;41397;49.972;18.944;2022-12-20T13:09:55;102526.93;;;4.07;74.08
55550;BME280;41397;49.972;18.944;2022-12-20T13:12:58;102539.10;;;3.91;75.01
55550;BME280;41397;49.972;18.944;2022-12-20T13:16:08;102551.66;;;3.93;74.55
55550;BME280;41397;49.972;18.944;2022-12-20T13:19:15;102562.70;;;3.84;75.22
55550;BME280;41397;49.972;18.944;2022-12-20T13:22:22;102558.61;;;3.68;75.06
55550;BME280;41397;49.972;18.944;2022-12-20T13:25:28;102562.00;;;3.76;75.18
55550;BME280;41397;49.972;18.944;2022-12-20T13:28:42;102544.35;;;3.61;75.55
55550;BME280;41397;49.972;18.944;2022-12-20T13:31:43;102550.00;;;3.52;76.26
55550;BME280;41397;49.972;18.944;2022-12-20T13:34:55;102541.81;;;3.55;76.26
55550;BME280;41397;49.972;18.944;2022-12-20T13:47:37;102547.80;;;3.30;77.11
55550;BME280;41397;49.972;18.944;2022-12-20T13:50:48;102553.20;;;3.30;77.38
55550;BME280;41397;49.972;18.944;2022-12-20T13:54:07;102557.83;;;3.25;77.63
55550;BME280;41397;49.972;18.944;2022-12-20T13:57:05;102563.06;;;3.33;77.19
55550;BME280;41397;49.972;18.944;2022-12-20T14:00:16;102563.26;;;3.24;77.30
55550;BME280;41397;49.972;18.944;2022-12-20T14:03:26;102570.63;;;3.17;77.54
55550;BME280;41397;49.972;18.944;2022-12-20T14:06:28;102571.66;;;3.11;77.71
55550;BME280;41397;49.972;18.944;2022-12-20T14:09:35;102575.33;;;3.07;78.06
55550;BME280;41397;49.972;18.944;2022-12-20T14:12:44;102572.40;;;3.18;78.04
55550;BME280;41397;49.972;18.944;2022-12-20T14:15:46;102564.76;;;2.97;78.19
55550;BME280;41397;49.972;18.944;2022-12-20T14:19:00;102574.44;;;3.08;78.47
55550;BME280;41397;49.972;18.944;2022-12-20T14:22:02;102565.38;;;3.09;78.43
55550;BME280;41397;49.972;18.944;2022-12-20T14:25:06;102570.86;;;3.06;78.51
55550;BME280;41397;49.972;18.944;2022-12-20T14:31:36;102555.62;;;3.02;78.69
55550;BME280;41397;49.972;18.944;2022-12-20T14:34:41;102546.45;;;3.11;78.47
55550;BME280;41397;49.972;18.944;2022-12-20T14:40:55;102539.63;;;2.93;78.73
55550;BME280;41397;49.972;18.944;2022-12-20T14:44:01;102557.52;;;2.99;78.59
55550;BME280;41397;49.972;18.944;2022-12-20T14:50:19;102558.74;;;2.84;79.24
55550;BME280;41397;49.972;18.944;2022-12-20T14:53:23;102542.64;;;2.78;79.43
55550;BME280;41397;49.972;18.944;2022-12-20T14:56:29;102534.66;;;2.73;79.67
55550;BME280;41397;49.972;18.944;2022-12-20T14:59:30;102534.72;;;2.70;80.10
55550;BME280;41397;49.972;18.944;2022-12-20T15:05:50;102542.71;;;2.75;80.11
55550;BME280;41397;49.972;18.944;2022-12-20T15:08:52;102529.32;;;2.70;80.15
55550;BME280;41397;49.972;18.944;2022-12-20T15:11:55;102523.92;;;2.70;79.82
55550;BME280;41397;49.972;18.944;2022-12-20T15:14:57;102518.53;;;2.69;80.02
55550;BME280;41397;49.972;18.944;2022-12-20T15:17:59;102509.41;;;2.74;79.95
55550;BME280;41397;49.972;18.944;2022-12-20T15:21:04;102513.15;;;2.67;79.91
55550;BME280;41397;49.972;18.944;2022-12-20T15:27:19;102505.32;;;2.55;80.70
55550;BME280;41397;49.972;18.944;2022-12-20T15:30:21;102498.14;;;2.54;80.48
55550;BME280;41397;49.972;18.944;2022-12-20T15:33:27;102506.51;;;2.40;80.61
55550;BME280;41397;49.972;18.944;2022-12-20T15:36:30;102516.48;;;2.38;81.26
55550;BME280;41397;49.972;18.944;2022-12-20T15:39:33;102513.93;;;2.30;81.08
55550;BME280;41397;49.972;18.944;2022-12-20T15:42:35;102514.05;;;2.24;81.60
55550;BME280;41397;49.972;18.944;2022-12-20T15:45:37;102508.40;;;2.36;81.72
55550;BME280;41397;49.972;18.944;2022-12-20T15:48:38;102514.59;;;2.41;81.29
55550;BME280;41397;49.972;18.944;2022-12-20T15:51:40;102502.13;;;2.34;81.63
55550;BME280;41397;49.972;18.944;2022-12-20T15:54:44;102505.63;;;2.39;81.25
55550;BME280;41397;49.972;18.944;2022-12-20T15:57:45;102510.20;;;2.37;81.13
55550;BME280;41397;49.972;18.944;2022-12-20T16:00:47;102498.66;;;2.29;81.02
55550;BME280;41397;49.972;18.944;2022-12-20T16:03:51;102484.16;;;2.33;81.41
55550;BME280;41397;49.972;18.944;2022-12-20T16:06:53;102478.77;;;2.32;81.41
55550;BME280;41397;49.972;18.944;2022-12-20T16:09:55;102482.40;;;2.32;81.05
55550;BME280;41397;49.972;18.944;2022-12-20T16:12:56;102494.35;;;2.19;81.41
55550;BME280;41397;49.972;18.944;2022-12-20T16:15:57;102490.84;;;2.14;81.46
55550;BME280;41397;49.972;18.944;2022-12-20T16:19:00;102490.13;;;2.04;81.61
55550;BME280;41397;49.972;18.944;2022-12-20T16:22:03;102490.22;;;1.99;82.29
55550;BME280;41397;49.972;18.944;2022-12-20T16:25:06;102489.37;;;1.97;82.24
55550;BME280;41397;49.972;18.944;2022-12-20T16:28:11;102486.91;;;1.84;82.44
55550;BME280;41397;49.972;18.944;2022-12-20T16:34:26;102489.63;;;1.84;83.03
55550;BME280;41397;49.972;18.944;2022-12-20T16:37:27;102474.13;;;1.93;82.92
55550;BME280;41397;49.972;18.944;2022-12-20T16:40:30;102477.55;;;2.05;82.85
55550;BME280;41397;49.972;18.944;2022-12-20T16:43:32;102469.66;;;1.94;82.57
55550;BME280;41397;49.972;18.944;2022-12-20T16:46:33;102468.80;;;1.90;82.95
55550;BME280;41397;49.972;18.944;2022-12-20T16:49:35;102467.80;;;1.96;82.78
55550;BME280;41397;49.972;18.944;2022-12-20T16:52:37;102456.19;;;1.91;82.86
55550;BME280;41397;49.972;18.944;2022-12-20T16:55:39;102471.36;;;1.98;82.71
55550;BME280;41397;49.972;18.944;2022-12-20T16:58:41;102477.63;;;2.00;82.53
55550;BME280;41397;49.972;18.944;2022-12-20T17:01:44;102465.15;;;1.93;82.63
55550;BME280;41397;49.972;18.944;2022-12-20T17:04:46;102458.81;;;1.95;82.52
55550;BME280;41397;49.972;18.944;2022-12-20T17:07:48;102457.95;;;1.93;82.79
55550;BME280;41397;49.972;18.944;2022-12-20T17:10:50;102469.66;;;1.94;82.55
55550;BME280;41397;49.972;18.944;2022-12-20T17:13:53;102466.89;;;1.97;82.82
55550;BME280;41397;49.972;18.944;2022-12-20T17:16:55;102447.89;;;2.02;82.80
55550;BME280;41397;49.972;18.944;2022-12-20T17:19:56;102459.47;;;2.08;82.97
55550;BME280;41397;49.972;18.944;2022-12-20T17:22:58;102455.15;;;1.99;83.00
55550;BME280;41397;49.972;18.944;2022-12-20T17:26:00;102445.92;;;2.10;82.73
55550;BME280;41397;49.972;18.944;2022-12-20T17:29:01;102441.32;;;2.16;82.55
55550;BME280;41397;49.972;18.944;2022-12-20T17:38:27;102445.05;;;2.09;82.91
55550;BME280;41397;49.972;18.944;2022-12-20T17:41:30;102441.38;;;2.13;82.81
55550;BME280;41397;49.972;18.944;2022-12-20T17:44:33;102437.91;;;2.07;82.82
55550;BME280;41397;49.972;18.944;2022-12-20T17:47:34;102465.02;;;1.99;82.83
55550;BME280;41397;49.972;18.944;2022-12-20T17:50:35;102455.10;;;2.01;82.88
55550;BME280;41397;49.972;18.944;2022-12-20T17:53:37;102448.83;;;2.00;82.97
55550;BME280;41397;49.972;18.944;2022-12-20T17:56:38;102464.00;;;2.06;83.05
55550;BME280;41397;49.972;18.944;2022-12-20T17:59:39;102455.10;;;2.01;82.78
55550;BME280;41397;49.972;18.944;2022-12-20T18:02:41;102453.27;;;2.03;82.46
55550;BME280;41397;49.972;18.944;2022-12-20T18:05:42;102444.96;;;2.14;82.51
55550;BME280;41397;49.972;18.944;2022-12-20T18:08:48;102452.91;;;2.21;82.63
55550;BME280;41397;49.972;18.944;2022-12-20T18:11:49;102453.81;;;2.20;82.43
55550;BME280;41397;49.972;18.944;2022-12-20T18:14:52;102460.20;;;2.16;82.14
55550;BME280;41397;49.972;18.944;2022-12-20T18:17:53;102447.53;;;2.20;82.19
55550;BME280;41397;49.972;18.944;2022-12-20T18:21:00;102433.90;;;2.26;81.80
55550;BME280;41397;49.972;18.944;2022-12-20T18:24:02;102432.92;;;2.30;81.73
55550;BME280;41397;49.972;18.944;2022-12-20T18:27:03;102415.80;;;2.31;81.37
55550;BME280;41397;49.972;18.944;2022-12-20T18:30:06;102412.20;;;2.32;81.96
55550;BME280;41397;49.972;18.944;2022-12-20T18:33:08;102410.56;;;2.23;81.43
55550;BME280;41397;49.972;18.944;2022-12-20T18:36:12;102414.17;;;2.24;81.41